sensor_id;sensor_type;location;lat;lon;timestamp;P1;durP1;ratioP1;P2;durP2;ratioP2
9142;SDS011;54072;47.410;8.446;2023-07-31T00:01:02;4.73;;;2.60;;
9142;SDS011;54072;47.410;8.446;2023-07-31T00:03:30;3.23;;;2.43;;
9142;SDS011;54072;47.410;8.446;2023-07-31T00:05:58;3.83;;;2.57;;
9142;SDS011;54072;47.410;8.446;2023-07-31T00:08:25;4.00;;;2.57;;
9142;SDS011;54072;47.410;8.446;2023-07-31T00:10:53;3.33;;;2.60;;
9142;SDS011;54072;47.410;8.446;2023-07-31T00:13:21;3.63;;;2.53;;
9142;SDS011;54072;47.410;8.446;2023-07-31T00:15:49;2.93;;;2.60;;
9142;SDS011;54072;47.410;8.446;2023-07-31T00:18:17;4.37;;;2.30;;
9142;SDS011;54072;47.410;8.446;2023-07-31T00:20:44;2.83;;;2.50;;
9142;SDS011;54072;47.410;8.446;2023-07-31T00:23:12;3.37;;;2.60;;
9142;SDS011;54072;47.410;8.446;2023-07-31T00:25:39;4.70;;;2.83;;
9142;SDS011;54072;47.410;8.446;2023-07-31T00:28:07;4.00;;;2.60;;
9142;SDS011;54072;47.410;8.446;2023-07-31T00:30:36;3.50;;;2.47;;
9142;SDS011;54072;47.410;8.446;2023-07-31T00:33:04;3.83;;;2.40;;
9142;SDS011;54072;47.410;8.446;2023-07-31T00:35:31;3.47;;;2.60;;
9142;SDS011;54072;47.410;8.446;2023-07-31T00:37:59;3.33;;;2.40;;
9142;SDS011;54072;47.410;8.446;2023-07-31T00:40:26;5.77;;;2.77;;
9142;SDS011;54072;47.410;8.446;2023-07-31T00:42:54;4.40;;;2.77;;
9142;SDS011;54072;47.410;8.446;2023-07-31T00:45:21;3.47;;;2.60;;
9142;SDS011;54072;47.410;8.446;2023-07-31T00:47:51;2.60;;;2.40;;
9142;SDS011;54072;47.410;8.446;2023-07-31T00:50:19;4.43;;;2.43;;
9142;SDS011;54072;47.410;8.446;2023-07-31T00:52:46;4.83;;;2.90;;
9142;SDS011;54072;47.410;8.446;2023-07-31T00:55:14;4.23;;;2.67;;
9142;SDS011;54072;47.410;8.446;2023-07-31T00:57:41;5.70;;;2.77;;
9142;SDS011;54072;47.410;8.446;2023-07-31T01:00:09;4.67;;;2.60;;
9142;SDS011;54072;47.410;8.446;2023-07-31T01:02:37;3.27;;;2.80;;
9142;SDS011;54072;47.410;8.446;2023-07-31T01:05:06;4.10;;;2.63;;
9142;SDS011;54072;47.410;8.446;2023-07-31T01:07:35;3.27;;;2.90;;
9142;SDS011;54072;47.410;8.446;2023-07-31T01:10:07;2.83;;;2.63;;
9142;SDS011;54072;47.410;8.446;2023-07-31T01:12:35;3.53;;;2.90;;
9142;SDS011;54072;47.410;8.446;2023-07-31T01:15:06;4.20;;;2.80;;
9142;SDS011;54072;47.410;8.446;2023-07-31T01:17:37;4.17;;;2.80;;
9142;SDS011;54072;47.410;8.446;2023-07-31T01:20:08;7.13;;;3.00;;
9142;SDS011;54072;47.410;8.446;2023-07-31T01:25:46;3.80;;;2.80;;
9142;SDS011;54072;47.410;8.446;2023-07-31T01:28:16;4.13;;;2.87;;
9142;SDS011;54072;47.410;8.446;2023-07-31T01:30:47;4.27;;;2.97;;
9142;SDS011;54072;47.410;8.446;2023-07-31T01:33:15;3.77;;;2.97;;
9142;SDS011;54072;47.410;8.446;2023-07-31T01:35:44;3.57;;;2.87;;
9142;SDS011;54072;47.410;8.446;2023-07-31T01:38:12;4.30;;;3.00;;
9142;SDS011;54072;47.410;8.446;2023-07-31T01:40:41;4.53;;;2.67;;
9142;SDS011;54072;47.410;8.446;2023-07-31T01:43:10;3.73;;;2.80;;
9142;SDS011;54072;47.410;8.446;2023-07-31T01:45:37;3.73;;;2.90;;
9142;SDS011;54072;47.410;8.446;2023-07-31T01:48:05;5.33;;;3.07;;
9142;SDS011;54072;47.410;8.446;2023-07-31T01:50:32;4.53;;;2.70;;
9142;SDS011;54072;47.410;8.446;2023-07-31T01:53:00;3.40;;;3.10;;
9142;SDS011;54072;47.410;8.446;2023-07-31T01:55:27;4.13;;;2.90;;
9142;SDS011;54072;47.410;8.446;2023-07-31T01:57:55;3.43;;;2.80;;
9142;SDS011;54072;47.410;8.446;2023-07-31T02:00:24;3.87;;;2.87;;
9142;SDS011;54072;47.410;8.446;2023-07-31T02:02:51;3.13;;;2.67;;
9142;SDS011;54072;47.410;8.446;2023-07-31T02:05:19;3.13;;;2.80;;
9142;SDS011;54072;47.410;8.446;2023-07-31T02:07:47;4.57;;;3.20;;
9142;SDS011;54072;47.410;8.446;2023-07-31T02:10:15;4.83;;;2.83;;
9142;SDS011;54072;47.410;8.446;2023-07-31T02:12:42;5.33;;;2.97;;
9142;SDS011;54072;47.410;8.446;2023-07-31T02:15:10;4.30;;;2.87;;
9142;SDS011;54072;47.410;8.446;2023-07-31T02:17:38;5.77;;;2.90;;
9142;SDS011;54072;47.410;8.446;2023-07-31T02:20:06;4.53;;;2.97;;
9142;SDS011;54072;47.410;8.446;2023-07-31T02:22:34;3.33;;;2.87;;
9142;SDS011;54072;47.410;8.446;2023-07-31T02:25:02;4.87;;;2.87;;
9142;SDS011;54072;47.410;8.446;2023-07-31T02:27:29;4.50;;;2.90;;
9142;SDS011;54072;47.410;8.446;2023-07-31T02:29:57;3.90;;;3.10;;
9142;SDS011;54072;47.410;8.446;2023-07-31T02:32:25;3.57;;;2.93;;
9142;SDS011;54072;47.410;8.446;2023-07-31T02:34:54;7.10;;;3.20;;
9142;SDS011;54072;47.410;8.446;2023-07-31T02:37:22;3.67;;;2.70;;
9142;SDS011;54072;47.410;8.446;2023-07-31T02:39:50;3.47;;;2.43;;
9142;SDS011;54072;47.410;8.446;2023-07-31T02:42:18;2.80;;;2.60;;
9142;SDS011;54072;47.410;8.446;2023-07-31T02:44:45;5.23;;;2.80;;
9142;SDS011;54072;47.410;8.446;2023-07-31T02:47:13;3.07;;;2.77;;
9142;SDS011;54072;47.410;8.446;2023-07-31T02:49:40;3.37;;;3.03;;
9142;SDS011;54072;47.410;8.446;2023-07-31T02:52:09;3.17;;;2.70;;
9142;SDS011;54072;47.410;8.446;2023-07-31T02:54:37;4.40;;;2.83;;
9142;SDS011;54072;47.410;8.446;2023-07-31T02:57:04;2.90;;;2.60;;
9142;SDS011;54072;47.410;8.446;2023-07-31T02:59:32;3.13;;;2.83;;
9142;SDS011;54072;47.410;8.446;2023-07-31T03:01:59;3.80;;;2.60;;
9142;SDS011;54072;47.410;8.446;2023-07-31T03:04:27;3.67;;;2.70;;
9142;SDS011;54072;47.410;8.446;2023-07-31T03:06:55;4.70;;;2.90;;
9142;SDS011;54072;47.410;8.446;2023-07-31T03:09:24;4.50;;;3.00;;
9142;SDS011;54072;47.410;8.446;2023-07-31T03:11:51;4.53;;;2.73;;
9142;SDS011;54072;47.410;8.446;2023-07-31T03:14:19;3.57;;;2.60;;
9142;SDS011;54072;47.410;8.446;2023-07-31T03:16:46;7.63;;;2.90;;
9142;SDS011;54072;47.410;8.446;2023-07-31T03:19:14;4.07;;;2.70;;
9142;SDS011;54072;47.410;8.446;2023-07-31T03:21:41;4.20;;;3.00;;
9142;SDS011;54072;47.410;8.446;2023-07-31T03:24:09;3.83;;;2.53;;
9142;SDS011;54072;47.410;8.446;2023-07-31T03:26:39;3.30;;;2.70;;
9142;SDS011;54072;47.410;8.446;2023-07-31T03:29:07;2.93;;;2.53;;
9142;SDS011;54072;47.410;8.446;2023-07-31T03:31:35;4.27;;;2.50;;
9142;SDS011;54072;47.410;8.446;2023-07-31T03:34:02;6.50;;;3.10;;
9142;SDS011;54072;47.410;8.446;2023-07-31T03:36:30;3.87;;;2.80;;
9142;SDS011;54072;47.410;8.446;2023-07-31T03:38:58;4.80;;;2.83;;
9142;SDS011;54072;47.410;8.446;2023-07-31T03:41:25;4.20;;;2.87;;
9142;SDS011;54072;47.410;8.446;2023-07-31T03:43:54;4.33;;;2.63;;
9142;SDS011;54072;47.410;8.446;2023-07-31T03:46:22;3.90;;;2.40;;
9142;SDS011;54072;47.410;8.446;2023-07-31T03:48:49;2.73;;;2.43;;
9142;SDS011;54072;47.410;8.446;2023-07-31T03:51:17;5.87;;;2.60;;
9142;SDS011;54072;47.410;8.446;2023-07-31T03:53:44;3.27;;;2.47;;
9142;SDS011;54072;47.410;8.446;2023-07-31T03:56:12;5.77;;;2.87;;
9142;SDS011;54072;47.410;8.446;2023-07-31T03:58:40;2.97;;;2.67;;
9142;SDS011;54072;47.410;8.446;2023-07-31T04:01:09;4.07;;;2.90;;
9142;SDS011;54072;47.410;8.446;2023-07-31T04:03:36;5.50;;;2.83;;
9142;SDS011;54072;47.410;8.446;2023-07-31T04:06:04;2.73;;;2.53;;
9142;SDS011;54072;47.410;8.446;2023-07-31T04:08:34;4.63;;;2.57;;
9142;SDS011;54072;47.410;8.446;2023-07-31T04:11:01;3.37;;;2.70;;
9142;SDS011;54072;47.410;8.446;2023-07-31T04:13:29;4.90;;;2.83;;
9142;SDS011;54072;47.410;8.446;2023-07-31T04:15:57;2.83;;;2.50;;
9142;SDS011;54072;47.410;8.446;2023-07-31T04:18:26;6.00;;;2.87;;
9142;SDS011;54072;47.410;8.446;2023-07-31T04:20:53;3.93;;;2.80;;
9142;SDS011;54072;47.410;8.446;2023-07-31T04:23:21;3.03;;;2.77;;
9142;SDS011;54072;47.410;8.446;2023-07-31T04:25:48;5.10;;;2.80;;
9142;SDS011;54072;47.410;8.446;2023-07-31T04:28:16;4.20;;;2.80;;
9142;SDS011;54072;47.410;8.446;2023-07-31T04:30:43;4.13;;;2.87;;
9142;SDS011;54072;47.410;8.446;2023-07-31T04:33:11;4.83;;;3.00;;
9142;SDS011;54072;47.410;8.446;2023-07-31T04:35:40;3.97;;;2.93;;
9142;SDS011;54072;47.410;8.446;2023-07-31T04:38:08;6.23;;;3.17;;
9142;SDS011;54072;47.410;8.446;2023-07-31T04:40:35;3.20;;;2.90;;
9142;SDS011;54072;47.410;8.446;2023-07-31T04:43:03;3.73;;;2.90;;
9142;SDS011;54072;47.410;8.446;2023-07-31T04:45:31;3.30;;;3.00;;
9142;SDS011;54072;47.410;8.446;2023-07-31T04:47:58;6.40;;;2.70;;
9142;SDS011;54072;47.410;8.446;2023-07-31T04:50:26;5.37;;;3.10;;
9142;SDS011;54072;47.410;8.446;2023-07-31T04:52:55;3.10;;;2.80;;
9142;SDS011;54072;47.410;8.446;2023-07-31T04:55:22;4.03;;;3.00;;
9142;SDS011;54072;47.410;8.446;2023-07-31T04:57:50;3.20;;;2.73;;
9142;SDS011;54072;47.410;8.446;2023-07-31T05:00:17;3.63;;;2.60;;
9142;SDS011;54072;47.410;8.446;2023-07-31T05:02:45;2.80;;;2.60;;
9142;SDS011;54072;47.410;8.446;2023-07-31T05:05:12;3.10;;;2.80;;
9142;SDS011;54072;47.410;8.446;2023-07-31T05:07:40;6.90;;;2.73;;
9142;SDS011;54072;47.410;8.446;2023-07-31T05:10:09;3.50;;;2.80;;
9142;SDS011;54072;47.410;8.446;2023-07-31T05:12:36;4.13;;;2.70;;
9142;SDS011;54072;47.410;8.446;2023-07-31T05:15:04;5.83;;;2.90;;
9142;SDS011;54072;47.410;8.446;2023-07-31T05:17:32;4.50;;;2.83;;
9142;SDS011;54072;47.410;8.446;2023-07-31T05:20:00;5.83;;;3.00;;
9142;SDS011;54072;47.410;8.446;2023-07-31T05:22:27;4.13;;;2.53;;
9142;SDS011;54072;47.410;8.446;2023-07-31T05:24:55;4.13;;;2.50;;
9142;SDS011;54072;47.410;8.446;2023-07-31T05:27:24;4.57;;;2.67;;
9142;SDS011;54072;47.410;8.446;2023-07-31T05:29:51;3.03;;;2.43;;
9142;SDS011;54072;47.410;8.446;2023-07-31T05:32:18;3.47;;;2.83;;
9142;SDS011;54072;47.410;8.446;2023-07-31T05:34:46;3.30;;;2.50;;
9142;SDS011;54072;47.410;8.446;2023-07-31T05:37:14;3.73;;;2.40;;
9142;SDS011;54072;47.410;8.446;2023-07-31T05:39:41;4.03;;;2.50;;
9142;SDS011;54072;47.410;8.446;2023-07-31T05:42:09;5.77;;;2.60;;
9142;SDS011;54072;47.410;8.446;2023-07-31T05:44:38;5.13;;;2.37;;
9142;SDS011;54072;47.410;8.446;2023-07-31T05:47:05;2.93;;;2.50;;
9142;SDS011;54072;47.410;8.446;2023-07-31T05:49:33;2.47;;;2.13;;
9142;SDS011;54072;47.410;8.446;2023-07-31T05:52:01;3.07;;;2.40;;
9142;SDS011;54072;47.410;8.446;2023-07-31T05:54:28;5.17;;;2.63;;
9142;SDS011;54072;47.410;8.446;2023-07-31T05:56:56;4.07;;;2.60;;
9142;SDS011;54072;47.410;8.446;2023-07-31T05:59:23;3.63;;;2.30;;
9142;SDS011;54072;47.410;8.446;2023-07-31T06:01:52;5.43;;;2.63;;
9142;SDS011;54072;47.410;8.446;2023-07-31T06:04:20;5.83;;;2.60;;
9142;SDS011;54072;47.410;8.446;2023-07-31T06:06:49;3.53;;;2.40;;
9142;SDS011;54072;47.410;8.446;2023-07-31T06:09:17;2.50;;;2.30;;
9142;SDS011;54072;47.410;8.446;2023-07-31T06:11:44;2.50;;;2.30;;
9142;SDS011;54072;47.410;8.446;2023-07-31T06:14:12;3.93;;;2.13;;
9142;SDS011;54072;47.410;8.446;2023-07-31T06:16:39;3.67;;;2.37;;
9142;SDS011;54072;47.410;8.446;2023-07-31T06:19:08;3.50;;;2.20;;
9142;SDS011;54072;47.410;8.446;2023-07-31T06:21:36;5.80;;;2.63;;
9142;SDS011;54072;47.410;8.446;2023-07-31T06:24:04;3.00;;;2.33;;
9142;SDS011;54072;47.410;8.446;2023-07-31T06:26:32;3.43;;;2.57;;
9142;SDS011;54072;47.410;8.446;2023-07-31T06:28:59;4.37;;;2.37;;
9142;SDS011;54072;47.410;8.446;2023-07-31T06:31:27;3.33;;;2.40;;
9142;SDS011;54072;47.410;8.446;2023-07-31T06:33:55;4.10;;;2.70;;
9142;SDS011;54072;47.410;8.446;2023-07-31T06:36:24;3.40;;;2.60;;
9142;SDS011;54072;47.410;8.446;2023-07-31T06:38:51;5.90;;;2.40;;
9142;SDS011;54072;47.410;8.446;2023-07-31T06:41:19;4.10;;;2.10;;
9142;SDS011;54072;47.410;8.446;2023-07-31T06:43:46;3.80;;;2.43;;
9142;SDS011;54072;47.410;8.446;2023-07-31T06:46:14;4.03;;;2.60;;
9142;SDS011;54072;47.410;8.446;2023-07-31T06:48:41;3.83;;;2.20;;
9142;SDS011;54072;47.410;8.446;2023-07-31T06:51:09;4.13;;;2.33;;
9142;SDS011;54072;47.410;8.446;2023-07-31T06:53:38;5.80;;;2.50;;
9142;SDS011;54072;47.410;8.446;2023-07-31T06:56:05;4.43;;;2.60;;
9142;SDS011;54072;47.410;8.446;2023-07-31T06:58:33;3.93;;;2.60;;
9142;SDS011;54072;47.410;8.446;2023-07-31T07:01:00;4.03;;;2.43;;
9142;SDS011;54072;47.410;8.446;2023-07-31T07:03:28;4.80;;;2.47;;
9142;SDS011;54072;47.410;8.446;2023-07-31T07:05:56;3.27;;;2.50;;
9142;SDS011;54072;47.410;8.446;2023-07-31T07:08:23;5.40;;;2.60;;
9142;SDS011;54072;47.410;8.446;2023-07-31T07:10:53;5.00;;;2.40;;
9142;SDS011;54072;47.410;8.446;2023-07-31T07:13:21;3.70;;;2.67;;
9142;SDS011;54072;47.410;8.446;2023-07-31T07:15:49;2.97;;;2.37;;
9142;SDS011;54072;47.410;8.446;2023-07-31T07:18:17;4.57;;;2.30;;
9142;SDS011;54072;47.410;8.446;2023-07-31T07:20:48;5.90;;;2.70;;
9142;SDS011;54072;47.410;8.446;2023-07-31T07:23:16;3.43;;;2.50;;
9142;SDS011;54072;47.410;8.446;2023-07-31T07:25:44;4.67;;;2.33;;
9142;SDS011;54072;47.410;8.446;2023-07-31T07:28:14;3.03;;;2.57;;
9142;SDS011;54072;47.410;8.446;2023-07-31T07:30:41;3.63;;;2.60;;
9142;SDS011;54072;47.410;8.446;2023-07-31T07:33:09;2.90;;;2.47;;
9142;SDS011;54072;47.410;8.446;2023-07-31T07:35:36;3.37;;;2.13;;
9142;SDS011;54072;47.410;8.446;2023-07-31T07:38:04;3.33;;;2.53;;
9142;SDS011;54072;47.410;8.446;2023-07-31T07:40:31;4.27;;;2.60;;
9142;SDS011;54072;47.410;8.446;2023-07-31T07:42:59;2.70;;;2.50;;
9142;SDS011;54072;47.410;8.446;2023-07-31T07:45:28;2.90;;;2.27;;
9142;SDS011;54072;47.410;8.446;2023-07-31T07:47:55;3.30;;;2.30;;
9142;SDS011;54072;47.410;8.446;2023-07-31T07:50:24;4.43;;;2.10;;
9142;SDS011;54072;47.410;8.446;2023-07-31T07:52:51;3.57;;;2.40;;
9142;SDS011;54072;47.410;8.446;2023-07-31T07:55:19;3.07;;;2.00;;
9142;SDS011;54072;47.410;8.446;2023-07-31T07:57:46;2.33;;;2.13;;
9142;SDS011;54072;47.410;8.446;2023-07-31T08:00:16;2.67;;;2.20;;
9142;SDS011;54072;47.410;8.446;2023-07-31T08:02:45;2.30;;;2.00;;
9142;SDS011;54072;47.410;8.446;2023-07-31T08:05:14;2.77;;;2.10;;
9142;SDS011;54072;47.410;8.446;2023-07-31T08:07:41;2.77;;;2.47;;
9142;SDS011;54072;47.410;8.446;2023-07-31T08:10:09;2.27;;;2.03;;
9142;SDS011;54072;47.410;8.446;2023-07-31T08:12:36;3.40;;;2.43;;
9142;SDS011;54072;47.410;8.446;2023-07-31T08:15:04;3.00;;;2.20;;
9142;SDS011;54072;47.410;8.446;2023-07-31T08:17:32;2.80;;;2.40;;
9142;SDS011;54072;47.410;8.446;2023-07-31T08:20:01;4.33;;;2.40;;
9142;SDS011;54072;47.410;8.446;2023-07-31T08:22:29;2.40;;;2.20;;
9142;SDS011;54072;47.410;8.446;2023-07-31T08:24:56;2.38;;;2.13;;
9142;SDS011;54072;47.410;8.446;2023-07-31T08:27:24;4.53;;;2.50;;
9142;SDS011;54072;47.410;8.446;2023-07-31T08:29:51;3.33;;;2.07;;
9142;SDS011;54072;47.410;8.446;2023-07-31T08:32:19;2.50;;;2.20;;
9142;SDS011;54072;47.410;8.446;2023-07-31T08:34:46;2.87;;;2.27;;
9142;SDS011;54072;47.410;8.446;2023-07-31T08:37:16;2.67;;;2.30;;
9142;SDS011;54072;47.410;8.446;2023-07-31T08:39:44;2.25;;;2.05;;
9142;SDS011;54072;47.410;8.446;2023-07-31T08:42:11;2.60;;;2.08;;
9142;SDS011;54072;47.410;8.446;2023-07-31T08:44:39;4.43;;;2.43;;
9142;SDS011;54072;47.410;8.446;2023-07-31T08:47:07;4.25;;;2.40;;
9142;SDS011;54072;47.410;8.446;2023-07-31T08:49:34;2.50;;;2.13;;
9142;SDS011;54072;47.410;8.446;2023-07-31T08:52:02;3.85;;;2.47;;
9142;SDS011;54072;47.410;8.446;2023-07-31T08:54:31;3.10;;;2.20;;
9142;SDS011;54072;47.410;8.446;2023-07-31T08:56:59;4.40;;;2.63;;
9142;SDS011;54072;47.410;8.446;2023-07-31T08:59:27;2.22;;;2.03;;
9142;SDS011;54072;47.410;8.446;2023-07-31T09:01:56;4.13;;;2.33;;
9142;SDS011;54072;47.410;8.446;2023-07-31T09:04:25;3.50;;;2.10;;
9142;SDS011;54072;47.410;8.446;2023-07-31T09:06:54;3.65;;;2.20;;
9142;SDS011;54072;47.410;8.446;2023-07-31T09:09:24;2.60;;;2.08;;
9142;SDS011;54072;47.410;8.446;2023-07-31T09:11:53;3.13;;;2.25;;
9142;SDS011;54072;47.410;8.446;2023-07-31T09:14:22;2.47;;;2.00;;
9142;SDS011;54072;47.410;8.446;2023-07-31T09:16:53;3.15;;;2.28;;
9142;SDS011;54072;47.410;8.446;2023-07-31T09:19:27;5.00;;;2.40;;
9142;SDS011;54072;47.410;8.446;2023-07-31T09:21:55;5.00;;;2.20;;
9142;SDS011;54072;47.410;8.446;2023-07-31T09:24:26;2.65;;;2.22;;
9142;SDS011;54072;47.410;8.446;2023-07-31T09:26:55;2.30;;;2.10;;
9142;SDS011;54072;47.410;8.446;2023-07-31T09:29:23;3.92;;;2.13;;
9142;SDS011;54072;47.410;8.446;2023-07-31T09:31:50;2.38;;;2.10;;
9142;SDS011;54072;47.410;8.446;2023-07-31T09:34:18;3.45;;;2.33;;
9142;SDS011;54072;47.410;8.446;2023-07-31T09:36:47;4.43;;;2.50;;
9142;SDS011;54072;47.410;8.446;2023-07-31T09:39:17;3.53;;;2.20;;
9142;SDS011;54072;47.410;8.446;2023-07-31T09:41:47;4.85;;;2.28;;
9142;SDS011;54072;47.410;8.446;2023-07-31T09:44:16;4.85;;;2.42;;
9142;SDS011;54072;47.410;8.446;2023-07-31T09:46:43;3.78;;;2.08;;
9142;SDS011;54072;47.410;8.446;2023-07-31T09:49:11;2.53;;;1.80;;
9142;SDS011;54072;47.410;8.446;2023-07-31T09:51:40;3.85;;;2.10;;
9142;SDS011;54072;47.410;8.446;2023-07-31T09:54:11;2.85;;;2.03;;
9142;SDS011;54072;47.410;8.446;2023-07-31T09:56:41;4.78;;;2.17;;
9142;SDS011;54072;47.410;8.446;2023-07-31T09:59:10;3.55;;;2.10;;
9142;SDS011;54072;47.410;8.446;2023-07-31T10:01:40;2.67;;;2.30;;
9142;SDS011;54072;47.410;8.446;2023-07-31T10:04:08;2.63;;;2.13;;
9142;SDS011;54072;47.410;8.446;2023-07-31T10:06:37;3.00;;;2.03;;
9142;SDS011;54072;47.410;8.446;2023-07-31T10:09:05;3.22;;;2.10;;
9142;SDS011;54072;47.410;8.446;2023-07-31T10:11:34;2.20;;;2.00;;
9142;SDS011;54072;47.410;8.446;2023-07-31T10:14:05;3.03;;;2.25;;
9142;SDS011;54072;47.410;8.446;2023-07-31T10:16:32;2.30;;;1.90;;
9142;SDS011;54072;47.410;8.446;2023-07-31T10:19:03;2.33;;;1.90;;
9142;SDS011;54072;47.410;8.446;2023-07-31T10:21:31;2.60;;;2.20;;
9142;SDS011;54072;47.410;8.446;2023-07-31T10:24:01;2.60;;;2.20;;
9142;SDS011;54072;47.410;8.446;2023-07-31T10:26:30;3.38;;;2.22;;
9142;SDS011;54072;47.410;8.446;2023-07-31T10:28:58;2.35;;;2.15;;
9142;SDS011;54072;47.410;8.446;2023-07-31T10:31:26;2.53;;;2.00;;
9142;SDS011;54072;47.410;8.446;2023-07-31T10:33:55;3.25;;;2.13;;
9142;SDS011;54072;47.410;8.446;2023-07-31T10:36:24;3.20;;;2.10;;
9142;SDS011;54072;47.410;8.446;2023-07-31T10:38:54;5.05;;;2.28;;
9142;SDS011;54072;47.410;8.446;2023-07-31T10:41:27;3.53;;;2.40;;
9142;SDS011;54072;47.410;8.446;2023-07-31T10:43:57;3.63;;;2.22;;
9142;SDS011;54072;47.410;8.446;2023-07-31T10:46:24;3.67;;;2.20;;
9142;SDS011;54072;47.410;8.446;2023-07-31T10:48:57;3.50;;;2.20;;
9142;SDS011;54072;47.410;8.446;2023-07-31T10:51:26;2.80;;;2.25;;
9142;SDS011;54072;47.410;8.446;2023-07-31T10:54:09;3.28;;;2.10;;
9142;SDS011;54072;47.410;8.446;2023-07-31T10:56:37;4.07;;;2.50;;
9142;SDS011;54072;47.410;8.446;2023-07-31T10:59:05;2.95;;;2.28;;
9142;SDS011;54072;47.410;8.446;2023-07-31T11:01:51;2.33;;;2.13;;
9142;SDS011;54072;47.410;8.446;2023-07-31T11:04:23;3.13;;;2.25;;
9142;SDS011;54072;47.410;8.446;2023-07-31T11:06:56;2.30;;;2.10;;
9142;SDS011;54072;47.410;8.446;2023-07-31T11:09:25;3.60;;;2.20;;
9142;SDS011;54072;47.410;8.446;2023-07-31T11:11:54;3.45;;;2.35;;
9142;SDS011;54072;47.410;8.446;2023-07-31T11:14:22;3.95;;;2.20;;
9142;SDS011;54072;47.410;8.446;2023-07-31T11:16:50;2.22;;;1.83;;
9142;SDS011;54072;47.410;8.446;2023-07-31T11:19:21;8.50;;;2.20;;
9142;SDS011;54072;47.410;8.446;2023-07-31T11:21:48;5.30;;;2.13;;
9142;SDS011;54072;47.410;8.446;2023-07-31T11:24:17;2.30;;;2.10;;
9142;SDS011;54072;47.410;8.446;2023-07-31T11:26:49;3.13;;;2.20;;
9142;SDS011;54072;47.410;8.446;2023-07-31T11:29:16;3.63;;;2.30;;
9142;SDS011;54072;47.410;8.446;2023-07-31T11:31:45;3.42;;;2.50;;
9142;SDS011;54072;47.410;8.446;2023-07-31T11:34:14;2.03;;;1.90;;
9142;SDS011;54072;47.410;8.446;2023-07-31T11:36:42;2.40;;;2.20;;
9142;SDS011;54072;47.410;8.446;2023-07-31T11:39:20;3.85;;;2.10;;
9142;SDS011;54072;47.410;8.446;2023-07-31T11:41:48;2.28;;;2.10;;
9142;SDS011;54072;47.410;8.446;2023-07-31T11:44:15;2.63;;;2.20;;
9142;SDS011;54072;47.410;8.446;2023-07-31T11:46:52;2.13;;;1.95;;
9142;SDS011;54072;47.410;8.446;2023-07-31T11:49:19;2.58;;;2.35;;
9142;SDS011;54072;47.410;8.446;2023-07-31T11:51:48;2.85;;;2.20;;
9142;SDS011;54072;47.410;8.446;2023-07-31T11:54:15;4.80;;;2.20;;
9142;SDS011;54072;47.410;8.446;2023-07-31T11:56:44;3.05;;;2.20;;
9142;SDS011;54072;47.410;8.446;2023-07-31T11:59:12;2.42;;;2.22;;
9142;SDS011;54072;47.410;8.446;2023-07-31T12:01:40;2.03;;;1.92;;
9142;SDS011;54072;47.410;8.446;2023-07-31T12:04:07;2.92;;;2.17;;
9142;SDS011;54072;47.410;8.446;2023-07-31T12:06:35;2.80;;;2.22;;
9142;SDS011;54072;47.410;8.446;2023-07-31T12:09:03;3.70;;;2.47;;
9142;SDS011;54072;47.410;8.446;2023-07-31T12:11:31;2.40;;;2.20;;
9142;SDS011;54072;47.410;8.446;2023-07-31T12:14:00;2.72;;;2.00;;
9142;SDS011;54072;47.410;8.446;2023-07-31T12:16:28;4.03;;;2.22;;
9142;SDS011;54072;47.410;8.446;2023-07-31T12:18:55;2.45;;;2.25;;
9142;SDS011;54072;47.410;8.446;2023-07-31T12:21:23;2.83;;;2.30;;
9142;SDS011;54072;47.410;8.446;2023-07-31T12:23:51;2.38;;;2.10;;
9142;SDS011;54072;47.410;8.446;2023-07-31T12:26:19;2.95;;;2.28;;
9142;SDS011;54072;47.410;8.446;2023-07-31T12:28:47;3.20;;;2.53;;
9142;SDS011;54072;47.410;8.446;2023-07-31T12:31:17;2.45;;;2.20;;
9142;SDS011;54072;47.410;8.446;2023-07-31T12:33:46;2.45;;;2.25;;
9142;SDS011;54072;47.410;8.446;2023-07-31T12:36:14;4.82;;;2.22;;
9142;SDS011;54072;47.410;8.446;2023-07-31T12:38:43;3.13;;;2.30;;
9142;SDS011;54072;47.410;8.446;2023-07-31T12:41:11;2.92;;;2.50;;
9142;SDS011;54072;47.410;8.446;2023-07-31T12:43:40;2.85;;;2.28;;
9142;SDS011;54072;47.410;8.446;2023-07-31T12:46:08;2.60;;;2.25;;
9142;SDS011;54072;47.410;8.446;2023-07-31T12:48:37;2.58;;;2.20;;
9142;SDS011;54072;47.410;8.446;2023-07-31T12:51:05;3.05;;;2.20;;
9142;SDS011;54072;47.410;8.446;2023-07-31T12:53:33;3.60;;;2.33;;
9142;SDS011;54072;47.410;8.446;2023-07-31T12:56:01;4.63;;;2.10;;
9142;SDS011;54072;47.410;8.446;2023-07-31T12:58:29;2.65;;;2.45;;
9142;SDS011;54072;47.410;8.446;2023-07-31T13:00:56;2.35;;;2.15;;
9142;SDS011;54072;47.410;8.446;2023-07-31T13:03:24;2.30;;;2.10;;
9142;SDS011;54072;47.410;8.446;2023-07-31T13:05:53;2.75;;;2.10;;
9142;SDS011;54072;47.410;8.446;2023-07-31T13:08:21;2.85;;;2.55;;
9142;SDS011;54072;47.410;8.446;2023-07-31T13:10:48;4.03;;;2.30;;
9142;SDS011;54072;47.410;8.446;2023-07-31T13:13:16;2.35;;;2.15;;
9142;SDS011;54072;47.410;8.446;2023-07-31T13:15:43;2.17;;;1.98;;
9142;SDS011;54072;47.410;8.446;2023-07-31T13:18:11;3.53;;;2.08;;
9142;SDS011;54072;47.410;8.446;2023-07-31T13:20:38;2.67;;;2.15;;
9142;SDS011;54072;47.410;8.446;2023-07-31T13:23:07;2.92;;;2.28;;
9142;SDS011;54072;47.410;8.446;2023-07-31T13:25:35;2.25;;;2.00;;
9142;SDS011;54072;47.410;8.446;2023-07-31T13:28:02;3.50;;;2.45;;
9142;SDS011;54072;47.410;8.446;2023-07-31T13:30:30;2.25;;;2.00;;
9142;SDS011;54072;47.410;8.446;2023-07-31T13:32:58;2.63;;;2.33;;
9142;SDS011;54072;47.410;8.446;2023-07-31T13:35:25;3.58;;;2.28;;
9142;SDS011;54072;47.410;8.446;2023-07-31T13:37:53;2.53;;;2.25;;
9142;SDS011;54072;47.410;8.446;2023-07-31T13:40:22;4.35;;;2.55;;
9142;SDS011;54072;47.410;8.446;2023-07-31T13:42:49;3.15;;;2.30;;
9142;SDS011;54072;47.410;8.446;2023-07-31T13:45:17;2.58;;;2.38;;
9142;SDS011;54072;47.410;8.446;2023-07-31T13:47:44;3.65;;;2.30;;
9142;SDS011;54072;47.410;8.446;2023-07-31T13:50:12;3.00;;;2.22;;
9142;SDS011;54072;47.410;8.446;2023-07-31T13:52:39;2.78;;;2.50;;
9142;SDS011;54072;47.410;8.446;2023-07-31T13:55:07;3.67;;;2.53;;
9142;SDS011;54072;47.410;8.446;2023-07-31T13:57:36;2.63;;;2.10;;
9142;SDS011;54072;47.410;8.446;2023-07-31T14:00:04;2.83;;;2.55;;
9142;SDS011;54072;47.410;8.446;2023-07-31T14:02:31;3.75;;;2.42;;
9142;SDS011;54072;47.410;8.446;2023-07-31T14:04:59;4.07;;;2.65;;
9142;SDS011;54072;47.410;8.446;2023-07-31T14:07:27;3.72;;;2.58;;
9142;SDS011;54072;47.410;8.446;2023-07-31T14:09:54;2.88;;;2.50;;
9142;SDS011;54072;47.410;8.446;2023-07-31T14:12:22;3.72;;;2.65;;
9142;SDS011;54072;47.410;8.446;2023-07-31T14:15:03;3.22;;;2.70;;
9142;SDS011;54072;47.410;8.446;2023-07-31T14:17:31;3.40;;;2.60;;
9142;SDS011;54072;47.410;8.446;2023-07-31T14:19:58;3.13;;;2.53;;
9142;SDS011;54072;47.410;8.446;2023-07-31T14:22:29;3.25;;;2.60;;
9142;SDS011;54072;47.410;8.446;2023-07-31T14:24:56;5.70;;;2.70;;
9142;SDS011;54072;47.410;8.446;2023-07-31T14:27:24;3.70;;;2.50;;
9142;SDS011;54072;47.410;8.446;2023-07-31T14:29:52;4.93;;;2.78;;
9142;SDS011;54072;47.410;8.446;2023-07-31T14:32:21;6.32;;;2.40;;
9142;SDS011;54072;47.410;8.446;2023-07-31T14:34:49;3.40;;;2.60;;
9142;SDS011;54072;47.410;8.446;2023-07-31T14:37:17;2.75;;;2.55;;
9142;SDS011;54072;47.410;8.446;2023-07-31T14:39:44;3.10;;;2.80;;
9142;SDS011;54072;47.410;8.446;2023-07-31T14:42:12;4.47;;;2.60;;
9142;SDS011;54072;47.410;8.446;2023-07-31T14:44:39;3.28;;;2.50;;
9142;SDS011;54072;47.410;8.446;2023-07-31T14:47:07;4.28;;;2.72;;
9142;SDS011;54072;47.410;8.446;2023-07-31T14:49:36;3.17;;;2.72;;
9142;SDS011;54072;47.410;8.446;2023-07-31T14:52:04;6.43;;;2.67;;
9142;SDS011;54072;47.410;8.446;2023-07-31T14:54:31;2.88;;;2.63;;
9142;SDS011;54072;47.410;8.446;2023-07-31T14:56:59;3.17;;;2.80;;
9142;SDS011;54072;47.410;8.446;2023-07-31T14:59:26;3.05;;;2.83;;
9142;SDS011;54072;47.410;8.446;2023-07-31T15:01:54;4.30;;;3.10;;
9142;SDS011;54072;47.410;8.446;2023-07-31T15:04:22;3.42;;;2.50;;
9142;SDS011;54072;47.410;8.446;2023-07-31T15:06:51;4.35;;;2.75;;
9142;SDS011;54072;47.410;8.446;2023-07-31T15:09:19;3.17;;;2.60;;